createdAt,value
2018-11-13T01:19:02.843Z,11.60
2018-11-13T04:33:28.020Z,11.00
2018-11-13T04:38:52.144Z,10.40
2018-11-13T04:41:34.059Z,10.40
2018-11-13T04:44:27.852Z,10.40
2018-11-13T04:47:29.396Z,10.40
2018-11-13T04:50:15.098Z,10.40
2018-11-13T04:52:58.684Z,10.40
2018-11-13T04:55:37.434Z,10.40
2018-11-13T04:58:22.324Z,10.40
2018-11-13T05:01:02.264Z,10.40
2018-11-13T05:03:43.195Z,10.40
2018-11-13T05:06:21.301Z,10.30
2018-11-13T05:09:04.484Z,10.30
2018-11-13T05:41:45.430Z,10.30
2018-11-13T05:44:15.790Z,10.30
2018-11-13T05:46:46.281Z,10.30
2018-11-13T05:49:16.677Z,10.30
2018-11-13T06:04:35.651Z,10.30
2018-11-13T06:07:06.266Z,10.40
2018-11-13T06:09:37.676Z,10.40
2018-11-13T06:12:08.320Z,10.40
2018-11-13T06:14:38.999Z,10.40
2018-11-13T06:17:09.690Z,10.40
2018-11-13T06:19:40.379Z,10.30
2018-11-13T06:22:10.977Z,10.30
2018-11-13T06:24:41.648Z,10.40
2018-11-13T06:27:12.599Z,10.40
2018-11-13T06:29:43.376Z,10.40
2018-11-13T06:32:13.965Z,10.40
2018-11-13T06:34:44.805Z,10.40
2018-11-13T06:37:15.490Z,10.40
2018-11-13T06:39:46.125Z,10.40
2018-11-13T06:42:16.764Z,10.40
2018-11-13T06:44:47.436Z,10.30
2018-11-13T06:47:18.090Z,10.40
2018-11-13T06:49:48.812Z,10.30
2018-11-13T06:52:19.461Z,10.30
2018-11-13T06:55:07.321Z,10.30
2018-11-13T06:57:37.948Z,10.30
2018-11-13T07:00:10.735Z,10.30
2018-11-13T07:02:41.393Z,10.30
2018-11-13T07:05:14.955Z,10.30
2018-11-13T07:07:46.125Z,10.30
2018-11-13T07:10:18.102Z,10.30
2018-11-13T07:12:49.817Z,10.30
2018-11-13T07:15:23.705Z,10.30
2018-11-13T07:17:56.913Z,10.30
2018-11-13T07:20:28.946Z,10.30
2018-11-13T07:22:59.671Z,10.30
2018-11-13T07:25:30.458Z,10.30
2018-11-13T07:28:01.230Z,10.40
2018-11-13T07:30:32.064Z,10.40
2018-11-13T07:33:02.912Z,10.40
2018-11-13T07:35:33.640Z,10.40
2018-11-13T07:38:04.388Z,10.40
2018-11-13T07:40:35.207Z,10.40
2018-11-13T07:43:06.470Z,10.40
2018-11-13T07:45:37.242Z,10.40
2018-11-13T07:48:08.311Z,10.50
2018-11-13T07:50:39.075Z,10.50
2018-11-13T07:53:09.784Z,10.50
2018-11-13T07:55:40.616Z,10.60
2018-11-13T07:58:11.456Z,10.60
2018-11-13T08:00:42.215Z,10.60
2018-11-13T08:03:27.868Z,10.60
2018-11-13T08:05:58.713Z,10.70
2018-11-13T08:08:29.475Z,10.70
2018-11-13T08:11:00.618Z,10.70
2018-11-13T08:13:31.998Z,10.80
2018-11-13T08:16:02.931Z,10.80
2018-11-13T08:18:33.829Z,10.80
2018-11-13T08:21:04.686Z,10.80
2018-11-13T08:23:35.459Z,10.80
2018-11-13T08:26:06.483Z,10.80
2018-11-13T08:28:37.261Z,10.80
2018-11-13T08:31:08.304Z,10.90
2018-11-13T08:33:39.165Z,11.00
2018-11-13T08:36:10.296Z,11.00
2018-11-13T08:38:41.031Z,11.10
2018-11-13T08:41:11.904Z,11.10
2018-11-13T08:43:42.654Z,11.20
2018-11-13T08:46:13.372Z,11.20
2018-11-13T08:48:44.172Z,11.20
2018-11-13T08:51:15.255Z,11.30
2018-11-13T08:53:45.968Z,11.30
2018-11-13T08:56:16.804Z,11.30
2018-11-13T08:58:47.602Z,11.30
2018-11-13T09:01:18.476Z,11.30
2018-11-13T09:03:49.302Z,11.40
2018-11-13T09:06:20.302Z,11.40
2018-11-13T09:08:51.031Z,11.40
2018-11-13T09:11:21.835Z,11.40
2018-11-13T09:13:52.630Z,11.40
2018-11-13T09:16:23.509Z,11.40
2018-11-13T09:18:54.294Z,11.40
2018-11-13T09:21:25.137Z,11.40
2018-11-13T09:23:55.790Z,11.40
2018-11-13T09:26:26.550Z,11.40
2018-11-13T09:28:57.240Z,11.40
2018-11-13T09:31:28.089Z,11.40
2018-11-13T09:33:58.851Z,11.40
2018-11-13T09:36:29.580Z,11.40
2018-11-13T09:39:00.321Z,11.40
2018-11-13T09:41:31.471Z,11.40
2018-11-13T09:44:02.219Z,11.50
2018-11-13T09:46:33.093Z,11.50
2018-11-13T09:49:03.974Z,11.50
2018-11-13T09:51:34.757Z,11.50
2018-11-13T09:54:05.831Z,11.60
2018-11-13T09:56:36.665Z,11.60
2018-11-13T09:59:07.391Z,11.60
2018-11-13T10:01:38.681Z,11.70
2018-11-13T10:04:10.059Z,11.80
2018-11-13T10:06:52.671Z,11.90
2018-11-13T10:16:24.996Z,12.00
2018-11-13T10:18:56.345Z,12.00
2018-11-13T10:21:27.265Z,12.10
2018-11-13T10:23:58.177Z,12.10
2018-11-13T10:26:29.712Z,12.20
2018-11-13T10:29:00.773Z,12.20
2018-11-13T10:31:31.611Z,12.30
2018-11-13T10:34:02.544Z,12.30
2018-11-13T10:36:33.340Z,12.30
2018-11-13T10:39:04.662Z,12.30
2018-11-13T10:41:35.509Z,12.40
2018-11-13T10:44:06.472Z,12.30
2018-11-13T10:46:37.355Z,12.40
2018-11-13T10:49:08.538Z,12.40
2018-11-13T10:51:39.359Z,12.50
2018-11-13T10:54:10.250Z,12.50
2018-11-13T10:56:41.107Z,12.50
2018-11-13T10:59:11.984Z,12.50
2018-11-13T11:01:47.814Z,12.50
2018-11-13T11:04:23.495Z,12.50
2018-11-13T11:06:54.377Z,12.50
2018-11-13T11:09:25.148Z,12.60
2018-11-13T11:11:56.658Z,12.50
2018-11-13T11:14:28.835Z,12.60
2018-11-13T11:17:00.050Z,12.60
2018-11-13T11:19:31.530Z,12.60
2018-11-13T11:22:04.726Z,12.60
2018-11-13T11:24:36.862Z,12.50
2018-11-13T11:27:07.640Z,12.50
2018-11-13T11:29:38.900Z,12.50
2018-11-13T11:32:10.199Z,12.50
2018-11-13T11:34:41.510Z,12.50
2018-11-13T11:37:12.511Z,12.40
2018-11-13T11:39:43.799Z,12.40
2018-11-13T11:42:14.812Z,12.40
2018-11-13T11:44:46.024Z,12.30
2018-11-13T11:47:16.932Z,12.30
2018-11-13T11:49:47.961Z,12.20
2018-11-13T11:52:19.062Z,12.20
2018-11-13T11:54:50.059Z,12.20
2018-11-13T11:57:21.088Z,12.10
2018-11-13T11:59:52.389Z,12.10
2018-11-13T12:02:23.654Z,12.10
2018-11-13T12:04:54.522Z,12.10
2018-11-13T12:07:25.706Z,12.10
2018-11-13T12:09:56.592Z,12.10
2018-11-13T12:12:27.551Z,12.10
2018-11-13T12:14:58.412Z,12.10
2018-11-13T12:17:29.295Z,12.10
2018-11-13T12:20:00.238Z,12.10
2018-11-13T12:22:31.169Z,12.20
2018-11-13T12:25:02.033Z,12.20
2018-11-13T12:27:33.040Z,12.20
2018-11-13T12:30:03.933Z,12.20
2018-11-13T12:32:34.988Z,12.20
2018-11-13T12:35:06.706Z,12.20
2018-11-13T12:37:38.210Z,12.20
2018-11-13T12:40:12.325Z,12.20
2018-11-13T12:42:43.675Z,12.20
2018-11-13T12:45:14.593Z,12.20
2018-11-13T12:47:45.956Z,12.30
2018-11-13T12:50:18.270Z,12.20
2018-11-13T12:52:49.281Z,12.20
2018-11-13T12:55:22.540Z,12.30
2018-11-13T12:57:53.396Z,12.30
2018-11-13T13:00:26.020Z,12.30
2018-11-13T13:02:57.065Z,12.30
2018-11-13T13:05:29.324Z,12.30
2018-11-13T13:08:00.984Z,12.40
2018-11-13T13:10:33.155Z,12.40
2018-11-13T13:13:05.242Z,12.40
2018-11-13T13:15:43.009Z,12.50
2018-11-13T13:18:14.136Z,12.50
2018-11-13T13:20:45.494Z,12.50
2018-11-13T13:23:18.346Z,12.50
2018-11-13T13:25:49.853Z,12.60
2018-11-13T13:28:21.042Z,12.60
2018-11-13T13:30:52.507Z,12.50
2018-11-13T13:33:23.746Z,12.50
2018-11-13T13:35:59.576Z,12.50
2018-11-13T13:38:31.741Z,12.50
2018-11-13T13:41:07.495Z,12.50
2018-11-13T13:43:38.923Z,12.50
2018-11-13T13:46:10.247Z,12.50
2018-11-13T13:48:41.447Z,12.50
2018-11-13T13:51:12.871Z,12.50
2018-11-13T13:53:44.232Z,12.50
2018-11-13T13:56:16.354Z,12.50
2018-11-13T13:58:47.532Z,12.50
2018-11-13T14:01:18.881Z,12.60
2018-11-13T14:03:50.196Z,12.50
2018-11-13T14:06:21.646Z,12.60
2018-11-13T14:08:52.890Z,12.60
2018-11-13T14:11:26.146Z,12.60
2018-11-13T14:14:04.447Z,12.60
2018-11-13T14:16:46.146Z,12.60
2018-11-13T14:19:18.680Z,12.60
2018-11-13T14:21:52.156Z,12.50
2018-11-13T14:24:25.481Z,12.50
2018-11-13T14:26:59.449Z,12.60
2018-11-13T14:29:33.700Z,12.50
2018-11-13T14:32:05.466Z,12.50
2018-11-13T14:34:37.066Z,12.50
2018-11-13T14:37:12.155Z,12.50
2018-11-13T14:39:45.975Z,12.50
2018-11-13T14:42:21.430Z,12.50
2018-11-13T14:44:53.669Z,12.50
2018-11-13T14:47:25.965Z,12.50
2018-11-13T14:49:58.346Z,12.50
2018-11-13T14:52:30.145Z,12.40
2018-11-13T14:55:28.779Z,12.40
2018-11-13T14:58:00.514Z,12.40
2018-11-13T15:00:32.558Z,12.40
2018-11-13T15:03:05.815Z,12.40
2018-11-13T15:05:36.910Z,12.40
2018-11-13T15:08:10.213Z,12.30
2018-11-13T15:10:56.957Z,12.30
2018-11-13T15:13:47.463Z,12.30
2018-11-13T15:19:52.845Z,12.30
2018-11-13T15:22:52.302Z,12.30
2018-11-13T15:31:55.293Z,12.20
2018-11-13T15:35:42.124Z,12.10
2018-11-13T15:38:12.703Z,12.10
2018-11-13T15:41:07.141Z,12.10
2018-11-13T15:43:39.808Z,12.10
2018-11-13T15:46:11.905Z,12.10
2018-11-13T15:48:43.171Z,12.00
2018-11-13T15:51:14.520Z,12.00
2018-11-13T15:53:45.973Z,12.00
2018-11-13T15:56:17.230Z,12.00
2018-11-13T15:58:48.510Z,12.00
2018-11-13T16:01:19.663Z,12.00
2018-11-13T16:03:50.569Z,12.00
2018-11-13T16:06:28.680Z,12.00
2018-11-13T16:09:01.403Z,12.00
2018-11-13T16:11:32.016Z,12.00
2018-11-13T16:14:04.817Z,11.90
2018-11-13T16:16:34.042Z,11.90
2018-11-13T16:19:05.368Z,11.90
2018-11-13T16:21:36.397Z,11.90
2018-11-13T16:24:08.626Z,11.90
2018-11-13T16:33:10.074Z,11.80
2018-11-13T16:35:54.254Z,11.80
2018-11-13T16:38:27.047Z,11.80
2018-11-13T16:40:58.495Z,11.80
2018-11-13T16:43:38.922Z,11.70
2018-11-13T16:46:10.191Z,11.70
2018-11-13T16:48:42.788Z,11.70
2018-11-13T16:51:15.692Z,11.70
2018-11-13T16:53:51.337Z,11.60
2018-11-13T16:56:21.941Z,11.60
2018-11-13T16:58:52.874Z,11.60
2018-11-13T17:01:28.300Z,11.60
2018-11-13T17:03:58.903Z,11.60
2018-11-13T17:06:39.180Z,11.60
2018-11-13T17:09:13.871Z,11.60
2018-11-13T17:11:47.465Z,11.50
2018-11-13T17:14:18.583Z,11.50
2018-11-13T17:16:49.429Z,11.50
2018-11-13T17:19:20.289Z,11.50
2018-11-13T17:21:51.304Z,11.50
2018-11-13T17:24:22.561Z,11.40
2018-11-13T17:26:53.389Z,11.40
2018-11-13T17:29:26.602Z,11.40
2018-11-13T17:31:57.728Z,11.40
2018-11-13T17:34:30.153Z,11.40
2018-11-13T17:37:27.754Z,11.40
2018-11-13T17:40:19.306Z,11.40
2018-11-13T17:42:51.614Z,11.30
2018-11-13T17:45:26.353Z,11.30
2018-11-13T17:47:58.502Z,11.30
2018-11-13T17:50:34.819Z,11.30
2018-11-13T17:53:06.575Z,11.30
2018-11-13T17:55:37.812Z,11.30
2018-11-13T17:58:12.544Z,11.30
2018-11-13T18:00:45.108Z,11.30
2018-11-13T18:03:23.092Z,11.30
2018-11-13T18:05:54.224Z,11.30
2018-11-13T18:08:25.547Z,11.20
2018-11-13T18:10:56.547Z,11.20
2018-11-13T18:13:27.893Z,11.20
2018-11-13T18:16:05.116Z,11.20
2018-11-13T18:18:37.348Z,11.20
2018-11-13T18:21:08.666Z,11.10
2018-11-13T18:23:40.930Z,11.10
2018-11-13T18:26:12.313Z,11.10
2018-11-13T18:28:43.558Z,11.10
2018-11-13T18:31:19.633Z,11.10
2018-11-13T18:33:51.958Z,11.10
2018-11-13T18:36:23.095Z,11.00
2018-11-13T18:38:57.186Z,11.00
2018-11-13T18:41:28.719Z,11.00
2018-11-13T18:44:00.095Z,11.00
2018-11-13T18:46:40.154Z,11.00
2018-11-13T18:49:11.968Z,10.90
2018-11-13T18:51:43.133Z,10.90
2018-11-13T18:54:14.171Z,10.90
2018-11-13T18:56:45.336Z,10.90
2018-11-13T18:59:17.125Z,10.90
2018-11-13T19:01:49.696Z,10.90
2018-11-13T19:04:36.080Z,10.90
2018-11-13T19:07:07.197Z,10.90
2018-11-13T19:09:38.724Z,10.90
2018-11-13T19:12:10.372Z,10.80
2018-11-13T19:14:43.180Z,10.90
2018-11-13T19:17:15.532Z,10.90
2018-11-13T19:19:47.316Z,10.80
2018-11-13T19:22:19.239Z,10.80
2018-11-13T19:24:50.790Z,10.80
2018-11-13T19:27:22.403Z,10.80
2018-11-13T19:29:54.180Z,10.80
2018-11-13T19:32:26.652Z,10.80
2018-11-13T19:34:58.928Z,10.80
2018-11-13T19:37:38.737Z,10.80
2018-11-13T19:40:16.240Z,10.70
2018-11-13T19:42:48.708Z,10.70
2018-11-13T19:45:20.666Z,10.70
2018-11-13T19:47:52.204Z,10.70
2018-11-13T19:50:25.314Z,10.70
2018-11-13T19:52:56.853Z,10.70
2018-11-13T19:55:29.044Z,10.70
2018-11-13T19:58:00.858Z,10.70
2018-11-13T20:00:33.972Z,10.70
2018-11-13T20:03:07.141Z,10.60
2018-11-13T20:05:38.949Z,10.60
2018-11-13T20:08:11.400Z,10.60
2018-11-13T20:10:43.258Z,10.60
2018-11-13T20:13:14.688Z,10.60
2018-11-13T20:15:46.750Z,10.60
2018-11-13T20:18:18.547Z,10.60
2018-11-13T20:20:50.556Z,10.60
2018-11-13T20:23:23.633Z,10.50
2018-11-13T20:25:55.360Z,10.50
2018-11-13T20:28:27.534Z,10.50
2018-11-13T20:30:59.933Z,10.50
2018-11-13T20:33:32.009Z,10.40
2018-11-13T20:36:03.832Z,10.40
2018-11-13T20:38:34.790Z,10.40
2018-11-13T20:41:06.972Z,10.30
2018-11-13T20:43:38.431Z,10.30
2018-11-13T20:46:09.744Z,10.30
2018-11-13T20:48:40.835Z,10.30
2018-11-13T20:51:12.208Z,10.20
2018-11-13T20:53:43.296Z,10.20
2018-11-13T20:56:14.293Z,10.20
2018-11-13T20:58:46.469Z,10.10
2018-11-13T21:01:17.737Z,10.10
2018-11-13T21:03:48.640Z,10.10
2018-11-13T21:06:19.759Z,10.10
2018-11-13T21:08:50.727Z,10.10
2018-11-13T21:11:21.623Z,10.00
2018-11-13T21:13:52.367Z,10.00
2018-11-13T21:16:23.394Z,10.00
2018-11-13T21:18:54.268Z,10.00
2018-11-13T21:21:25.058Z,10.00
2018-11-13T21:23:55.657Z,9.90
2018-11-13T21:26:26.493Z,9.90
2018-11-13T21:28:57.230Z,9.90
2018-11-13T21:31:28.276Z,9.90
2018-11-13T21:33:59.179Z,9.80
2018-11-13T21:36:30.030Z,9.80
2018-11-13T21:39:00.768Z,9.80
2018-11-13T21:41:31.452Z,9.80
2018-11-13T21:44:02.089Z,9.80
2018-11-13T21:46:32.896Z,9.80
2018-11-13T21:49:04.115Z,9.70
2018-11-13T21:51:35.763Z,9.70
2018-11-13T21:54:07.269Z,9.70
2018-11-13T21:56:38.375Z,9.70
2018-11-13T21:59:08.953Z,9.70
2018-11-13T22:01:39.878Z,9.70
2018-11-13T22:04:10.726Z,9.70
2018-11-13T22:06:41.539Z,9.60
2018-11-13T22:09:12.701Z,9.60
2018-11-13T22:11:43.400Z,9.60
2018-11-13T22:14:14.094Z,9.60
2018-11-13T22:16:45.357Z,9.60
2018-11-13T22:19:15.880Z,9.50
2018-11-13T22:21:46.691Z,9.60
2018-11-13T22:24:17.371Z,9.50
2018-11-13T22:26:48.198Z,9.50
2018-11-13T22:29:18.906Z,9.50
2018-11-13T22:31:49.835Z,9.50
2018-11-13T22:34:20.758Z,9.50
2018-11-13T22:36:51.674Z,9.50
2018-11-13T22:39:22.478Z,9.50
2018-11-13T22:41:53.248Z,9.50
2018-11-13T22:44:24.063Z,9.50
2018-11-13T22:46:54.839Z,9.50
2018-11-13T22:49:25.580Z,9.40
2018-11-13T22:51:56.316Z,9.40
2018-11-13T22:54:27.134Z,9.40
2018-11-13T22:56:58.104Z,9.40
2018-11-13T22:59:28.871Z,9.40
2018-11-13T23:01:59.708Z,9.40
2018-11-13T23:04:30.518Z,9.40
2018-11-13T23:07:01.716Z,9.40
2018-11-13T23:09:32.366Z,9.30
2018-11-13T23:12:03.244Z,9.30
2018-11-13T23:14:34.098Z,9.30
2018-11-13T23:17:04.977Z,9.30
2018-11-13T23:19:35.810Z,9.30
2018-11-13T23:22:07.261Z,9.20
2018-11-13T23:24:38.035Z,9.20
2018-11-13T23:27:09.086Z,9.20
2018-11-13T23:29:39.811Z,9.20
2018-11-13T23:32:10.863Z,9.20
2018-11-13T23:34:41.740Z,9.10
2018-11-13T23:37:12.521Z,9.10
2018-11-13T23:39:43.351Z,9.10
2018-11-13T23:42:14.243Z,9.10
2018-11-13T23:44:44.891Z,9.10
2018-11-13T23:47:15.890Z,9.10
2018-11-13T23:49:46.491Z,9.10
2018-11-13T23:52:17.323Z,9.10
2018-11-13T23:54:48.066Z,9.10
2018-11-13T23:57:18.911Z,9.10
2018-11-13T23:59:49.588Z,9.00
